createdAt,value
2023-03-24T16:26:48.187Z,81.95
2023-03-24T16:31:48.233Z,82.05
2023-03-24T16:36:47.986Z,81.20
2023-03-24T16:41:47.921Z,81.88
2023-03-24T16:46:47.873Z,82.84
2023-03-24T16:51:47.812Z,84.31
2023-03-24T16:56:47.770Z,81.99
2023-03-24T17:01:47.718Z,83.15
2023-03-24T17:06:47.581Z,80.91
2023-03-24T17:11:47.514Z,80.88
2023-03-24T17:16:47.450Z,80.33
2023-03-24T17:21:47.382Z,80.23
2023-03-24T17:26:47.317Z,79.07
2023-03-24T17:31:47.305Z,77.10
2023-03-24T17:36:47.182Z,78.73
2023-03-24T17:41:47.150Z,77.81
2023-03-24T17:46:47.096Z,78.87
2023-03-24T17:51:46.980Z,78.66
2023-03-24T17:56:46.928Z,76.56
2023-03-24T18:01:46.837Z,77.61
2023-03-24T18:06:46.775Z,77.20
2023-03-24T18:11:47.783Z,76.56
2023-03-24T18:16:46.660Z,76.79
2023-03-24T18:21:46.571Z,77.34
2023-03-24T18:26:47.370Z,78.60
2023-03-24T18:31:46.459Z,78.84
2023-03-24T18:36:46.369Z,78.74
2023-03-24T18:41:46.303Z,78.64
2023-03-24T18:46:46.237Z,77.82
2023-03-24T18:51:46.177Z,76.90
2023-03-24T18:56:46.185Z,76.62
2023-03-24T19:01:46.359Z,75.51
2023-03-24T19:06:46.116Z,76.15
2023-03-24T19:11:46.033Z,77.00
2023-03-24T19:16:45.853Z,78.00
2023-03-24T19:21:45.795Z,78.71
2023-03-24T19:26:45.761Z,80.99
2023-03-24T19:31:45.641Z,80.58
2023-03-24T19:36:47.666Z,80.79
2023-03-24T19:41:45.576Z,80.79
2023-03-24T19:46:45.510Z,81.10
2023-03-24T19:51:45.376Z,80.83
2023-03-24T19:56:45.327Z,80.73
2023-03-24T20:01:45.279Z,81.65
2023-03-24T20:06:45.189Z,80.87
2023-03-24T20:11:45.155Z,80.52
2023-03-24T20:16:45.088Z,79.60
2023-03-24T20:21:44.993Z,79.19
2023-03-24T20:26:46.506Z,79.19
2023-03-24T20:31:44.917Z,77.83
2023-03-24T20:36:44.784Z,78.44
2023-03-24T20:41:44.710Z,78.41
2023-03-24T20:46:45.981Z,76.84
2023-03-24T20:51:44.589Z,77.48
2023-03-24T20:56:44.570Z,77.38
2023-03-24T21:01:44.452Z,77.48
2023-03-24T21:06:44.390Z,78.34
2023-03-24T21:11:44.307Z,78.34
2023-03-24T21:16:44.296Z,79.36
2023-03-24T21:21:44.189Z,77.79
2023-03-24T21:26:44.116Z,77.69
2023-03-24T21:31:44.049Z,78.23
2023-03-24T21:36:43.984Z,78.44
2023-03-24T21:41:43.911Z,77.83
2023-03-24T21:46:43.852Z,78.17
2023-03-24T21:51:43.821Z,78.72
2023-03-24T21:56:43.765Z,78.88
2023-03-24T22:01:43.681Z,79.43
2023-03-24T22:06:43.583Z,79.53
2023-03-24T22:11:43.513Z,79.19
2023-03-24T22:16:43.513Z,78.61
2023-03-24T22:21:43.386Z,78.41
2023-03-24T22:26:43.319Z,78.00
2023-03-24T22:31:43.259Z,76.76
2023-03-24T22:36:43.192Z,74.08
2023-03-24T22:41:43.157Z,74.45
2023-03-24T22:46:43.147Z,73.84
2023-03-24T22:51:43.054Z,73.40
2023-03-24T22:56:42.990Z,72.99
2023-03-24T23:01:42.951Z,73.19
2023-03-24T23:06:42.831Z,72.38
2023-03-24T23:11:42.761Z,73.54
2023-03-24T23:16:42.763Z,73.33
2023-03-24T23:21:42.635Z,73.67
2023-03-24T23:26:42.565Z,74.08
2023-03-24T23:31:42.526Z,74.90
2023-03-24T23:36:42.420Z,72.86
2023-03-24T23:41:42.357Z,74.45
2023-03-24T23:46:42.298Z,74.86
2023-03-24T23:51:42.223Z,75.48
2023-03-24T23:56:42.214Z,74.55
